sensor_id;sensor_type;location;lat;lon;timestamp;temperature;humidity
5476;DHT22;2760;50.000;9.194;2023-09-12T00:00:44;18.40;99.90
5476;DHT22;2760;50.000;9.194;2023-09-12T00:03:11;18.70;99.90
5476;DHT22;2760;50.000;9.194;2023-09-12T00:05:38;18.80;99.90
5476;DHT22;2760;50.000;9.194;2023-09-12T00:08:05;18.90;99.90
5476;DHT22;2760;50.000;9.194;2023-09-12T00:10:32;19.00;99.90
5476;DHT22;2760;50.000;9.194;2023-09-12T00:12:59;19.00;99.90
5476;DHT22;2760;50.000;9.194;2023-09-12T00:15:29;19.00;99.90
5476;DHT22;2760;50.000;9.194;2023-09-12T00:17:57;19.00;99.90
5476;DHT22;2760;50.000;9.194;2023-09-12T00:20:24;19.10;99.90
5476;DHT22;2760;50.000;9.194;2023-09-12T00:22:51;19.10;99.90
5476;DHT22;2760;50.000;9.194;2023-09-12T00:25:20;19.20;99.90
5476;DHT22;2760;50.000;9.194;2023-09-12T00:27:47;17.90;99.90
5476;DHT22;2760;50.000;9.194;2023-09-12T00:30:14;18.90;99.90
5476;DHT22;2760;50.000;9.194;2023-09-12T00:32:41;18.80;99.90
5476;DHT22;2760;50.000;9.194;2023-09-12T00:35:11;18.70;99.90
5476;DHT22;2760;50.000;9.194;2023-09-12T00:37:38;18.70;99.90
5476;DHT22;2760;50.000;9.194;2023-09-12T00:40:06;18.60;99.90
5476;DHT22;2760;50.000;9.194;2023-09-12T00:42:33;18.60;99.90
5476;DHT22;2760;50.000;9.194;2023-09-12T00:45:01;18.60;99.90
5476;DHT22;2760;50.000;9.194;2023-09-12T00:47:29;18.60;99.90
5476;DHT22;2760;50.000;9.194;2023-09-12T00:49:58;18.70;99.90
5476;DHT22;2760;50.000;9.194;2023-09-12T00:52:28;18.70;99.90
5476;DHT22;2760;50.000;9.194;2023-09-12T00:54:56;18.60;99.90
5476;DHT22;2760;50.000;9.194;2023-09-12T00:57:23;18.60;99.90
5476;DHT22;2760;50.000;9.194;2023-09-12T00:59:52;18.50;99.90
5476;DHT22;2760;50.000;9.194;2023-09-12T01:02:20;18.40;99.90
5476;DHT22;2760;50.000;9.194;2023-09-12T01:04:48;18.30;99.90
5476;DHT22;2760;50.000;9.194;2023-09-12T01:07:15;18.40;99.90
5476;DHT22;2760;50.000;9.194;2023-09-12T01:09:44;18.40;99.90
5476;DHT22;2760;50.000;9.194;2023-09-12T01:12:11;18.30;99.90
5476;DHT22;2760;50.000;9.194;2023-09-12T01:14:40;18.40;99.90
5476;DHT22;2760;50.000;9.194;2023-09-12T01:17:08;18.30;99.90
5476;DHT22;2760;50.000;9.194;2023-09-12T01:19:35;18.20;99.90
5476;DHT22;2760;50.000;9.194;2023-09-12T01:22:21;18.20;99.90
5476;DHT22;2760;50.000;9.194;2023-09-12T01:25:40;18.30;99.90
5476;DHT22;2760;50.000;9.194;2023-09-12T01:28:12;18.30;99.90
5476;DHT22;2760;50.000;9.194;2023-09-12T01:30:42;18.30;99.90
5476;DHT22;2760;50.000;9.194;2023-09-12T01:33:09;18.30;99.90
5476;DHT22;2760;50.000;9.194;2023-09-12T01:35:37;18.20;99.90
5476;DHT22;2760;50.000;9.194;2023-09-12T01:38:04;18.20;99.90
5476;DHT22;2760;50.000;9.194;2023-09-12T01:40:38;18.20;99.90
5476;DHT22;2760;50.000;9.194;2023-09-12T01:43:11;18.20;99.90
5476;DHT22;2760;50.000;9.194;2023-09-12T01:45:38;18.20;99.90
5476;DHT22;2760;50.000;9.194;2023-09-12T01:48:06;18.20;99.90
5476;DHT22;2760;50.000;9.194;2023-09-12T01:50:35;18.00;99.90
5476;DHT22;2760;50.000;9.194;2023-09-12T01:53:03;17.70;99.90
5476;DHT22;2760;50.000;9.194;2023-09-12T01:55:31;17.70;99.90
5476;DHT22;2760;50.000;9.194;2023-09-12T01:57:58;17.60;99.90
5476;DHT22;2760;50.000;9.194;2023-09-12T02:00:27;17.60;99.90
5476;DHT22;2760;50.000;9.194;2023-09-12T02:02:53;17.50;99.90
5476;DHT22;2760;50.000;9.194;2023-09-12T02:05:21;17.40;99.90
5476;DHT22;2760;50.000;9.194;2023-09-12T02:07:50;17.40;99.90
5476;DHT22;2760;50.000;9.194;2023-09-12T02:10:19;17.30;99.90
5476;DHT22;2760;50.000;9.194;2023-09-12T02:12:45;17.30;99.90
5476;DHT22;2760;50.000;9.194;2023-09-12T02:15:13;17.30;99.90
5476;DHT22;2760;50.000;9.194;2023-09-12T02:17:42;17.30;99.90
5476;DHT22;2760;50.000;9.194;2023-09-12T02:20:09;17.30;99.90
5476;DHT22;2760;50.000;9.194;2023-09-12T02:22:37;17.40;99.90
5476;DHT22;2760;50.000;9.194;2023-09-12T02:25:06;17.40;99.90
5476;DHT22;2760;50.000;9.194;2023-09-12T02:27:34;17.40;99.90
5476;DHT22;2760;50.000;9.194;2023-09-12T02:30:01;17.50;99.90
5476;DHT22;2760;50.000;9.194;2023-09-12T02:32:28;17.50;99.90
5476;DHT22;2760;50.000;9.194;2023-09-12T02:34:58;17.50;99.90
5476;DHT22;2760;50.000;9.194;2023-09-12T02:37:25;17.50;99.90
5476;DHT22;2760;50.000;9.194;2023-09-12T02:39:52;17.50;99.90
5476;DHT22;2760;50.000;9.194;2023-09-12T02:42:20;17.40;99.90
5476;DHT22;2760;50.000;9.194;2023-09-12T02:44:47;17.50;99.90
5476;DHT22;2760;50.000;9.194;2023-09-12T02:47:14;17.50;99.90
5476;DHT22;2760;50.000;9.194;2023-09-12T02:49:41;17.60;99.90
5476;DHT22;2760;50.000;9.194;2023-09-12T02:52:09;19.50;99.90
5476;DHT22;2760;50.000;9.194;2023-09-12T02:54:36;17.60;99.90
5476;DHT22;2760;50.000;9.194;2023-09-12T02:57:04;17.60;99.90
5476;DHT22;2760;50.000;9.194;2023-09-12T02:59:31;16.40;99.90
5476;DHT22;2760;50.000;9.194;2023-09-12T03:01:57;17.60;99.90
5476;DHT22;2760;50.000;9.194;2023-09-12T03:04:25;17.40;99.90
5476;DHT22;2760;50.000;9.194;2023-09-12T03:06:52;17.70;99.90
5476;DHT22;2760;50.000;9.194;2023-09-12T03:09:21;17.10;99.90
5476;DHT22;2760;50.000;9.194;2023-09-12T03:11:48;17.30;99.90
5476;DHT22;2760;50.000;9.194;2023-09-12T03:14:15;17.00;99.90
5476;DHT22;2760;50.000;9.194;2023-09-12T03:16:42;17.20;99.90
5476;DHT22;2760;50.000;9.194;2023-09-12T03:19:09;17.10;99.90
5476;DHT22;2760;50.000;9.194;2023-09-12T03:21:36;17.10;99.90
5476;DHT22;2760;50.000;9.194;2023-09-12T03:24:05;17.20;99.90
5476;DHT22;2760;50.000;9.194;2023-09-12T03:26:35;17.20;99.90
5476;DHT22;2760;50.000;9.194;2023-09-12T03:29:03;17.20;99.90
5476;DHT22;2760;50.000;9.194;2023-09-12T03:31:30;17.40;99.90
5476;DHT22;2760;50.000;9.194;2023-09-12T03:33:57;17.40;99.90
5476;DHT22;2760;50.000;9.194;2023-09-12T03:36:24;17.40;99.90
5476;DHT22;2760;50.000;9.194;2023-09-12T03:38:51;17.40;99.90
5476;DHT22;2760;50.000;9.194;2023-09-12T03:41:18;17.40;99.90
5476;DHT22;2760;50.000;9.194;2023-09-12T03:43:48;17.30;99.90
5476;DHT22;2760;50.000;9.194;2023-09-12T03:46:15;17.30;99.90
5476;DHT22;2760;50.000;9.194;2023-09-12T03:48:42;17.20;99.90
5476;DHT22;2760;50.000;9.194;2023-09-12T03:51:09;17.40;99.90
5476;DHT22;2760;50.000;9.194;2023-09-12T03:53:36;17.40;99.90
5476;DHT22;2760;50.000;9.194;2023-09-12T03:56:04;17.50;99.90
5476;DHT22;2760;50.000;9.194;2023-09-12T03:58:31;17.70;99.90
5476;DHT22;2760;50.000;9.194;2023-09-12T04:01:00;17.70;99.90
5476;DHT22;2760;50.000;9.194;2023-09-12T04:03:27;17.70;99.90
5476;DHT22;2760;50.000;9.194;2023-09-12T04:05:54;17.50;99.90
5476;DHT22;2760;50.000;9.194;2023-09-12T04:08:21;17.50;99.90
5476;DHT22;2760;50.000;9.194;2023-09-12T04:10:48;17.50;99.90
5476;DHT22;2760;50.000;9.194;2023-09-12T04:13:15;17.50;99.90
5476;DHT22;2760;50.000;9.194;2023-09-12T04:15:42;17.40;99.90
5476;DHT22;2760;50.000;9.194;2023-09-12T04:18:10;17.40;99.90
5476;DHT22;2760;50.000;9.194;2023-09-12T04:20:37;17.30;99.90
5476;DHT22;2760;50.000;9.194;2023-09-12T04:23:04;17.40;99.90
5476;DHT22;2760;50.000;9.194;2023-09-12T04:25:32;17.40;99.90
5476;DHT22;2760;50.000;9.194;2023-09-12T04:27:59;17.50;99.90
5476;DHT22;2760;50.000;9.194;2023-09-12T04:30:26;17.50;99.90
5476;DHT22;2760;50.000;9.194;2023-09-12T04:32:54;17.40;99.90
5476;DHT22;2760;50.000;9.194;2023-09-12T04:35:23;17.50;99.90
5476;DHT22;2760;50.000;9.194;2023-09-12T04:37:51;17.50;99.90
5476;DHT22;2760;50.000;9.194;2023-09-12T04:40:18;17.30;99.90
5476;DHT22;2760;50.000;9.194;2023-09-12T04:42:45;17.40;99.90
5476;DHT22;2760;50.000;9.194;2023-09-12T04:45:13;17.30;99.90
5476;DHT22;2760;50.000;9.194;2023-09-12T04:47:40;17.30;99.90
5476;DHT22;2760;50.000;9.194;2023-09-12T04:50:08;17.40;99.90
5476;DHT22;2760;50.000;9.194;2023-09-12T04:52:39;17.40;99.90
5476;DHT22;2760;50.000;9.194;2023-09-12T04:55:07;17.60;99.90
5476;DHT22;2760;50.000;9.194;2023-09-12T04:57:34;17.70;99.90
5476;DHT22;2760;50.000;9.194;2023-09-12T05:00:01;16.30;99.90
5476;DHT22;2760;50.000;9.194;2023-09-12T05:02:30;17.60;99.90
5476;DHT22;2760;50.000;9.194;2023-09-12T05:04:57;17.70;99.90
5476;DHT22;2760;50.000;9.194;2023-09-12T05:07:25;17.80;99.90
5476;DHT22;2760;50.000;9.194;2023-09-12T05:09:53;18.00;99.90
5476;DHT22;2760;50.000;9.194;2023-09-12T05:12:20;17.90;99.90
5476;DHT22;2760;50.000;9.194;2023-09-12T05:14:48;17.90;99.90
5476;DHT22;2760;50.000;9.194;2023-09-12T05:17:15;17.60;99.90
5476;DHT22;2760;50.000;9.194;2023-09-12T05:19:42;17.80;99.90
5476;DHT22;2760;50.000;9.194;2023-09-12T05:22:33;16.50;99.90
5476;DHT22;2760;50.000;9.194;2023-09-12T05:25:15;17.50;99.90
5476;DHT22;2760;50.000;9.194;2023-09-12T05:27:42;17.40;99.90
5476;DHT22;2760;50.000;9.194;2023-09-12T05:30:10;17.40;99.90
5476;DHT22;2760;50.000;9.194;2023-09-12T05:32:37;17.40;99.90
5476;DHT22;2760;50.000;9.194;2023-09-12T05:35:05;17.60;99.90
5476;DHT22;2760;50.000;9.194;2023-09-12T05:37:32;17.80;99.90
5476;DHT22;2760;50.000;9.194;2023-09-12T05:39:59;17.90;99.90
5476;DHT22;2760;50.000;9.194;2023-09-12T05:42:28;18.10;99.90
5476;DHT22;2760;50.000;9.194;2023-09-12T05:44:55;18.30;99.90
5476;DHT22;2760;50.000;9.194;2023-09-12T05:47:23;18.60;99.90
5476;DHT22;2760;50.000;9.194;2023-09-12T05:49:53;18.70;99.90
5476;DHT22;2760;50.000;9.194;2023-09-12T05:52:20;18.80;99.90
5476;DHT22;2760;50.000;9.194;2023-09-12T05:54:47;18.80;99.90
5476;DHT22;2760;50.000;9.194;2023-09-12T05:57:16;18.60;99.90
5476;DHT22;2760;50.000;9.194;2023-09-12T05:59:44;17.40;99.90
5476;DHT22;2760;50.000;9.194;2023-09-12T06:02:11;18.60;99.90
5476;DHT22;2760;50.000;9.194;2023-09-12T06:04:38;18.60;99.90
5476;DHT22;2760;50.000;9.194;2023-09-12T06:07:05;18.70;99.90
5476;DHT22;2760;50.000;9.194;2023-09-12T06:09:32;18.80;99.90
5476;DHT22;2760;50.000;9.194;2023-09-12T06:11:59;18.90;99.90
5476;DHT22;2760;50.000;9.194;2023-09-12T06:14:26;18.90;99.90
5476;DHT22;2760;50.000;9.194;2023-09-12T06:16:54;17.30;99.90
5476;DHT22;2760;50.000;9.194;2023-09-12T06:19:21;18.80;99.90
5476;DHT22;2760;50.000;9.194;2023-09-12T06:21:48;18.80;99.90
5476;DHT22;2760;50.000;9.194;2023-09-12T06:24:17;18.80;99.90
5476;DHT22;2760;50.000;9.194;2023-09-12T06:26:44;19.30;99.90
5476;DHT22;2760;50.000;9.194;2023-09-12T06:29:11;18.60;99.90
5476;DHT22;2760;50.000;9.194;2023-09-12T06:31:38;18.70;99.90
5476;DHT22;2760;50.000;9.194;2023-09-12T06:34:08;18.80;99.90
5476;DHT22;2760;50.000;9.194;2023-09-12T06:36:35;18.90;99.90
5476;DHT22;2760;50.000;9.194;2023-09-12T06:39:03;19.00;99.90
5476;DHT22;2760;50.000;9.194;2023-09-12T06:41:30;19.20;99.90
5476;DHT22;2760;50.000;9.194;2023-09-12T06:43:58;19.20;99.90
5476;DHT22;2760;50.000;9.194;2023-09-12T06:46:26;19.30;99.90
5476;DHT22;2760;50.000;9.194;2023-09-12T06:48:53;19.40;99.90
5476;DHT22;2760;50.000;9.194;2023-09-12T06:51:23;19.50;99.90
5476;DHT22;2760;50.000;9.194;2023-09-12T06:53:51;18.00;99.90
5476;DHT22;2760;50.000;9.194;2023-09-12T06:56:18;19.60;99.90
5476;DHT22;2760;50.000;9.194;2023-09-12T06:58:45;19.60;99.90
5476;DHT22;2760;50.000;9.194;2023-09-12T07:01:12;19.70;99.90
5476;DHT22;2760;50.000;9.194;2023-09-12T07:03:39;19.50;99.90
5476;DHT22;2760;50.000;9.194;2023-09-12T07:06:06;19.50;99.90
5476;DHT22;2760;50.000;9.194;2023-09-12T07:08:36;19.60;99.90
5476;DHT22;2760;50.000;9.194;2023-09-12T07:11:04;19.80;99.90
5476;DHT22;2760;50.000;9.194;2023-09-12T07:13:32;20.00;99.90
5476;DHT22;2760;50.000;9.194;2023-09-12T07:15:59;20.10;99.90
5476;DHT22;2760;50.000;9.194;2023-09-12T07:18:29;20.20;99.90
5476;DHT22;2760;50.000;9.194;2023-09-12T07:20:59;20.30;99.90
5476;DHT22;2760;50.000;9.194;2023-09-12T07:23:26;20.50;99.90
5476;DHT22;2760;50.000;9.194;2023-09-12T07:25:55;20.60;99.90
5476;DHT22;2760;50.000;9.194;2023-09-12T07:28:23;20.70;99.90
5476;DHT22;2760;50.000;9.194;2023-09-12T07:30:50;20.70;99.90
5476;DHT22;2760;50.000;9.194;2023-09-12T07:33:17;20.90;99.90
5476;DHT22;2760;50.000;9.194;2023-09-12T07:35:44;21.20;99.90
5476;DHT22;2760;50.000;9.194;2023-09-12T07:38:12;21.50;99.90
5476;DHT22;2760;50.000;9.194;2023-09-12T07:40:41;21.70;99.90
5476;DHT22;2760;50.000;9.194;2023-09-12T07:43:09;21.90;99.90
5476;DHT22;2760;50.000;9.194;2023-09-12T07:45:36;21.30;99.90
5476;DHT22;2760;50.000;9.194;2023-09-12T07:48:05;22.20;99.90
5476;DHT22;2760;50.000;9.194;2023-09-12T07:50:32;22.20;99.90
5476;DHT22;2760;50.000;9.194;2023-09-12T07:53:00;22.60;99.90
5476;DHT22;2760;50.000;9.194;2023-09-12T07:55:27;23.10;99.90
5476;DHT22;2760;50.000;9.194;2023-09-12T07:57:56;23.70;99.90
5476;DHT22;2760;50.000;9.194;2023-09-12T08:00:25;24.20;99.90
5476;DHT22;2760;50.000;9.194;2023-09-12T08:02:52;24.60;99.90
5476;DHT22;2760;50.000;9.194;2023-09-12T08:05:19;24.90;99.90
5476;DHT22;2760;50.000;9.194;2023-09-12T08:07:46;25.10;99.90
5476;DHT22;2760;50.000;9.194;2023-09-12T08:10:13;24.90;99.90
5476;DHT22;2760;50.000;9.194;2023-09-12T08:12:41;24.60;99.90
5476;DHT22;2760;50.000;9.194;2023-09-12T08:15:09;24.50;99.90
5476;DHT22;2760;50.000;9.194;2023-09-12T08:17:38;24.90;99.90
5476;DHT22;2760;50.000;9.194;2023-09-12T08:20:06;25.40;99.90
5476;DHT22;2760;50.000;9.194;2023-09-12T08:22:35;25.80;99.90
5476;DHT22;2760;50.000;9.194;2023-09-12T08:25:02;25.80;99.90
5476;DHT22;2760;50.000;9.194;2023-09-12T08:27:30;25.90;99.90
5476;DHT22;2760;50.000;9.194;2023-09-12T08:29:57;26.20;99.90
5476;DHT22;2760;50.000;9.194;2023-09-12T08:32:24;26.60;99.90
5476;DHT22;2760;50.000;9.194;2023-09-12T08:34:52;26.70;99.90
5476;DHT22;2760;50.000;9.194;2023-09-12T08:37:19;27.00;99.90
5476;DHT22;2760;50.000;9.194;2023-09-12T08:39:46;27.10;99.90
5476;DHT22;2760;50.000;9.194;2023-09-12T08:42:15;27.30;99.90
5476;DHT22;2760;50.000;9.194;2023-09-12T08:44:43;27.20;99.90
5476;DHT22;2760;50.000;9.194;2023-09-12T08:47:11;27.30;99.90
5476;DHT22;2760;50.000;9.194;2023-09-12T08:49:39;27.50;99.90
5476;DHT22;2760;50.000;9.194;2023-09-12T08:52:10;27.80;99.50
5476;DHT22;2760;50.000;9.194;2023-09-12T08:54:37;26.20;98.70
5476;DHT22;2760;50.000;9.194;2023-09-12T08:57:05;28.10;99.10
5476;DHT22;2760;50.000;9.194;2023-09-12T08:59:34;28.30;98.40
5476;DHT22;2760;50.000;9.194;2023-09-12T09:02:02;28.30;99.00
5476;DHT22;2760;50.000;9.194;2023-09-12T09:04:33;28.40;98.40
5476;DHT22;2760;50.000;9.194;2023-09-12T09:07:01;28.60;98.30
5476;DHT22;2760;50.000;9.194;2023-09-12T09:09:31;28.60;98.00
5476;DHT22;2760;50.000;9.194;2023-09-12T09:11:58;28.60;97.70
5476;DHT22;2760;50.000;9.194;2023-09-12T09:14:25;29.10;97.90
5476;DHT22;2760;50.000;9.194;2023-09-12T09:16:52;29.10;97.10
5476;DHT22;2760;50.000;9.194;2023-09-12T09:19:20;29.20;96.70
5476;DHT22;2760;50.000;9.194;2023-09-12T09:21:47;29.40;97.00
5476;DHT22;2760;50.000;9.194;2023-09-12T09:24:17;29.60;96.50
5476;DHT22;2760;50.000;9.194;2023-09-12T09:26:47;29.60;96.50
5476;DHT22;2760;50.000;9.194;2023-09-12T09:29:16;29.80;96.40
5476;DHT22;2760;50.000;9.194;2023-09-12T09:31:45;30.00;96.40
5476;DHT22;2760;50.000;9.194;2023-09-12T09:34:13;30.00;96.00
5476;DHT22;2760;50.000;9.194;2023-09-12T09:36:42;29.90;95.90
5476;DHT22;2760;50.000;9.194;2023-09-12T09:39:10;29.60;96.30
5476;DHT22;2760;50.000;9.194;2023-09-12T09:41:37;29.80;96.90
5476;DHT22;2760;50.000;9.194;2023-09-12T09:44:07;30.20;96.30
5476;DHT22;2760;50.000;9.194;2023-09-12T09:46:35;30.50;96.20
5476;DHT22;2760;50.000;9.194;2023-09-12T09:49:02;30.30;96.00
5476;DHT22;2760;50.000;9.194;2023-09-12T09:51:30;30.30;96.20
5476;DHT22;2760;50.000;9.194;2023-09-12T09:53:58;30.60;95.90
5476;DHT22;2760;50.000;9.194;2023-09-12T09:56:26;30.80;95.40
5476;DHT22;2760;50.000;9.194;2023-09-12T09:58:56;30.90;95.30
5476;DHT22;2760;50.000;9.194;2023-09-12T10:01:27;31.00;97.00
5476;DHT22;2760;50.000;9.194;2023-09-12T10:03:58;31.40;95.10
5476;DHT22;2760;50.000;9.194;2023-09-12T10:06:27;31.10;94.80
5476;DHT22;2760;50.000;9.194;2023-09-12T10:08:55;30.80;95.20
5476;DHT22;2760;50.000;9.194;2023-09-12T10:11:24;31.20;95.40
5476;DHT22;2760;50.000;9.194;2023-09-12T10:13:54;29.90;94.10
5476;DHT22;2760;50.000;9.194;2023-09-12T10:16:24;31.60;94.60
5476;DHT22;2760;50.000;9.194;2023-09-12T10:18:58;31.90;94.50
5476;DHT22;2760;50.000;9.194;2023-09-12T10:21:29;32.10;95.00
5476;DHT22;2760;50.000;9.194;2023-09-12T10:23:58;32.40;94.20
5476;DHT22;2760;50.000;9.194;2023-09-12T10:26:26;32.50;94.10
5476;DHT22;2760;50.000;9.194;2023-09-12T10:28:54;32.70;93.40
5476;DHT22;2760;50.000;9.194;2023-09-12T10:31:22;32.40;94.10
5476;DHT22;2760;50.000;9.194;2023-09-12T10:33:52;32.90;93.40
5476;DHT22;2760;50.000;9.194;2023-09-12T10:36:20;33.30;93.70
5476;DHT22;2760;50.000;9.194;2023-09-12T10:38:49;33.40;93.50
5476;DHT22;2760;50.000;9.194;2023-09-12T10:41:18;33.40;93.70
5476;DHT22;2760;50.000;9.194;2023-09-12T10:43:47;33.60;92.70
5476;DHT22;2760;50.000;9.194;2023-09-12T10:46:17;33.80;92.40
5476;DHT22;2760;50.000;9.194;2023-09-12T10:48:45;33.60;92.90
5476;DHT22;2760;50.000;9.194;2023-09-12T10:51:13;33.10;93.00
5476;DHT22;2760;50.000;9.194;2023-09-12T10:53:46;33.00;93.40
5476;DHT22;2760;50.000;9.194;2023-09-12T10:56:19;32.90;93.00
5476;DHT22;2760;50.000;9.194;2023-09-12T10:59:08;33.50;93.70
5476;DHT22;2760;50.000;9.194;2023-09-12T11:01:37;33.70;93.20
5476;DHT22;2760;50.000;9.194;2023-09-12T11:04:30;33.70;92.20
5476;DHT22;2760;50.000;9.194;2023-09-12T11:07:00;33.90;91.80
5476;DHT22;2760;50.000;9.194;2023-09-12T11:09:28;34.30;91.40
5476;DHT22;2760;50.000;9.194;2023-09-12T11:11:57;34.40;91.70
5476;DHT22;2760;50.000;9.194;2023-09-12T11:14:25;34.00;91.10
5476;DHT22;2760;50.000;9.194;2023-09-12T11:17:23;34.70;90.80
5476;DHT22;2760;50.000;9.194;2023-09-12T11:19:51;34.70;90.10
5476;DHT22;2760;50.000;9.194;2023-09-12T11:22:24;34.80;90.00
5476;DHT22;2760;50.000;9.194;2023-09-12T11:24:51;32.90;88.90
5476;DHT22;2760;50.000;9.194;2023-09-12T11:27:19;34.50;89.70
5476;DHT22;2760;50.000;9.194;2023-09-12T11:29:46;34.60;91.10
5476;DHT22;2760;50.000;9.194;2023-09-12T11:32:26;35.10;88.30
5476;DHT22;2760;50.000;9.194;2023-09-12T11:34:53;35.20;86.00
5476;DHT22;2760;50.000;9.194;2023-09-12T11:37:27;35.20;87.70
5476;DHT22;2760;50.000;9.194;2023-09-12T11:39:55;35.00;87.40
5476;DHT22;2760;50.000;9.194;2023-09-12T11:42:24;35.10;87.80
5476;DHT22;2760;50.000;9.194;2023-09-12T11:44:52;34.90;88.10
5476;DHT22;2760;50.000;9.194;2023-09-12T11:47:19;34.80;87.60
5476;DHT22;2760;50.000;9.194;2023-09-12T11:49:46;35.00;90.20
5476;DHT22;2760;50.000;9.194;2023-09-12T11:52:14;35.30;88.70
5476;DHT22;2760;50.000;9.194;2023-09-12T11:54:44;35.30;88.30
5476;DHT22;2760;50.000;9.194;2023-09-12T11:57:13;35.50;86.40
5476;DHT22;2760;50.000;9.194;2023-09-12T11:59:41;35.10;86.80
5476;DHT22;2760;50.000;9.194;2023-09-12T12:02:11;35.50;87.20
5476;DHT22;2760;50.000;9.194;2023-09-12T12:04:38;35.10;88.60
5476;DHT22;2760;50.000;9.194;2023-09-12T12:07:05;34.90;88.50
5476;DHT22;2760;50.000;9.194;2023-09-12T12:09:33;34.90;87.90
5476;DHT22;2760;50.000;9.194;2023-09-12T12:12:13;34.50;89.00
5476;DHT22;2760;50.000;9.194;2023-09-12T12:14:41;34.50;87.50
5476;DHT22;2760;50.000;9.194;2023-09-12T12:17:11;34.50;87.70
5476;DHT22;2760;50.000;9.194;2023-09-12T12:19:39;34.20;88.30
5476;DHT22;2760;50.000;9.194;2023-09-12T12:22:06;34.50;88.10
5476;DHT22;2760;50.000;9.194;2023-09-12T12:24:39;34.80;87.30
5476;DHT22;2760;50.000;9.194;2023-09-12T12:27:06;34.60;87.50
5476;DHT22;2760;50.000;9.194;2023-09-12T12:29:38;34.30;87.30
5476;DHT22;2760;50.000;9.194;2023-09-12T12:32:05;34.20;88.40
5476;DHT22;2760;50.000;9.194;2023-09-12T12:34:34;34.50;87.20
5476;DHT22;2760;50.000;9.194;2023-09-12T12:37:02;34.80;87.70
5476;DHT22;2760;50.000;9.194;2023-09-12T12:39:29;35.20;87.10
5476;DHT22;2760;50.000;9.194;2023-09-12T12:41:56;33.50;85.70
5476;DHT22;2760;50.000;9.194;2023-09-12T12:44:32;35.20;86.80
5476;DHT22;2760;50.000;9.194;2023-09-12T12:47:04;35.20;87.60
5476;DHT22;2760;50.000;9.194;2023-09-12T12:49:36;35.30;86.90
5476;DHT22;2760;50.000;9.194;2023-09-12T12:52:03;34.50;87.90
5476;DHT22;2760;50.000;9.194;2023-09-12T12:54:31;34.10;88.80
5476;DHT22;2760;50.000;9.194;2023-09-12T12:56:59;32.70;88.50
5476;DHT22;2760;50.000;9.194;2023-09-12T12:59:26;33.90;89.20
5476;DHT22;2760;50.000;9.194;2023-09-12T13:01:55;34.30;89.70
5476;DHT22;2760;50.000;9.194;2023-09-12T13:04:24;34.70;88.30
5476;DHT22;2760;50.000;9.194;2023-09-12T13:06:51;34.70;88.00
5476;DHT22;2760;50.000;9.194;2023-09-12T13:09:18;34.00;88.50
5476;DHT22;2760;50.000;9.194;2023-09-12T13:11:46;34.10;90.60
5476;DHT22;2760;50.000;9.194;2023-09-12T13:14:13;34.00;89.80
5476;DHT22;2760;50.000;9.194;2023-09-12T13:16:40;33.10;89.00
5476;DHT22;2760;50.000;9.194;2023-09-12T13:19:07;33.90;90.10
5476;DHT22;2760;50.000;9.194;2023-09-12T13:21:35;34.00;89.60
5476;DHT22;2760;50.000;9.194;2023-09-12T13:24:03;34.90;89.40
5476;DHT22;2760;50.000;9.194;2023-09-12T13:26:30;35.00;88.50
5476;DHT22;2760;50.000;9.194;2023-09-12T13:28:57;34.60;87.40
5476;DHT22;2760;50.000;9.194;2023-09-12T13:31:24;34.50;87.90
5476;DHT22;2760;50.000;9.194;2023-09-12T13:33:51;34.60;87.60
5476;DHT22;2760;50.000;9.194;2023-09-12T13:36:19;34.70;87.30
5476;DHT22;2760;50.000;9.194;2023-09-12T13:38:47;34.10;88.50
5476;DHT22;2760;50.000;9.194;2023-09-12T13:41:16;31.80;87.20
5476;DHT22;2760;50.000;9.194;2023-09-12T13:43:44;33.70;90.00
5476;DHT22;2760;50.000;9.194;2023-09-12T13:46:11;33.80;89.60
5476;DHT22;2760;50.000;9.194;2023-09-12T13:48:38;33.60;90.50
5476;DHT22;2760;50.000;9.194;2023-09-12T13:51:05;33.70;90.00
5476;DHT22;2760;50.000;9.194;2023-09-12T13:53:32;34.50;90.50
5476;DHT22;2760;50.000;9.194;2023-09-12T13:56:01;34.30;89.00
5476;DHT22;2760;50.000;9.194;2023-09-12T13:58:28;34.20;89.40
5476;DHT22;2760;50.000;9.194;2023-09-12T14:00:56;34.30;88.10
5476;DHT22;2760;50.000;9.194;2023-09-12T14:03:22;34.10;88.40
5476;DHT22;2760;50.000;9.194;2023-09-12T14:05:50;33.90;88.40
5476;DHT22;2760;50.000;9.194;2023-09-12T14:08:17;33.90;88.40
5476;DHT22;2760;50.000;9.194;2023-09-12T14:10:45;33.60;89.40
5476;DHT22;2760;50.000;9.194;2023-09-12T14:13:13;31.90;89.80
5476;DHT22;2760;50.000;9.194;2023-09-12T14:15:40;33.60;90.60
5476;DHT22;2760;50.000;9.194;2023-09-12T14:18:07;33.90;89.70
5476;DHT22;2760;50.000;9.194;2023-09-12T14:20:34;33.80;90.10
5476;DHT22;2760;50.000;9.194;2023-09-12T14:23:01;33.80;89.00
5476;DHT22;2760;50.000;9.194;2023-09-12T14:25:29;33.80;88.60
5476;DHT22;2760;50.000;9.194;2023-09-12T14:27:56;33.70;89.30
5476;DHT22;2760;50.000;9.194;2023-09-12T14:30:24;33.60;89.60
5476;DHT22;2760;50.000;9.194;2023-09-12T14:32:59;33.50;90.20
5476;DHT22;2760;50.000;9.194;2023-09-12T14:35:26;33.40;89.00
5476;DHT22;2760;50.000;9.194;2023-09-12T14:37:53;33.20;90.10
5476;DHT22;2760;50.000;9.194;2023-09-12T14:40:20;32.90;90.40
5476;DHT22;2760;50.000;9.194;2023-09-12T14:42:47;32.80;90.70
5476;DHT22;2760;50.000;9.194;2023-09-12T14:45:14;32.70;91.00
5476;DHT22;2760;50.000;9.194;2023-09-12T14:47:43;32.50;91.30
5476;DHT22;2760;50.000;9.194;2023-09-12T14:50:10;32.30;92.00
5476;DHT22;2760;50.000;9.194;2023-09-12T14:52:37;32.50;91.30
5476;DHT22;2760;50.000;9.194;2023-09-12T14:55:06;32.70;91.10
5476;DHT22;2760;50.000;9.194;2023-09-12T14:57:34;32.90;91.20
5476;DHT22;2760;50.000;9.194;2023-09-12T15:00:01;32.90;91.00
5476;DHT22;2760;50.000;9.194;2023-09-12T15:02:29;33.00;90.80
5476;DHT22;2760;50.000;9.194;2023-09-12T15:04:58;33.00;91.10
5476;DHT22;2760;50.000;9.194;2023-09-12T15:07:26;33.00;91.30
5476;DHT22;2760;50.000;9.194;2023-09-12T15:09:55;32.80;91.40
5476;DHT22;2760;50.000;9.194;2023-09-12T15:12:22;32.70;91.50
5476;DHT22;2760;50.000;9.194;2023-09-12T15:14:49;32.60;91.00
5476;DHT22;2760;50.000;9.194;2023-09-12T15:17:16;32.70;91.40
5476;DHT22;2760;50.000;9.194;2023-09-12T15:19:43;32.50;91.60
5476;DHT22;2760;50.000;9.194;2023-09-12T15:22:12;32.40;91.60
5476;DHT22;2760;50.000;9.194;2023-09-12T15:24:40;32.30;91.50
5476;DHT22;2760;50.000;9.194;2023-09-12T15:27:08;32.20;91.70
5476;DHT22;2760;50.000;9.194;2023-09-12T15:29:35;32.20;91.50
5476;DHT22;2760;50.000;9.194;2023-09-12T15:32:02;31.80;92.10
5476;DHT22;2760;50.000;9.194;2023-09-12T15:34:31;31.40;92.20
5476;DHT22;2760;50.000;9.194;2023-09-12T15:37:09;29.80;92.20
5476;DHT22;2760;50.000;9.194;2023-09-12T15:39:38;31.20;93.20
5476;DHT22;2760;50.000;9.194;2023-09-12T15:42:05;31.00;93.50
5476;DHT22;2760;50.000;9.194;2023-09-12T15:44:33;30.80;93.50
5476;DHT22;2760;50.000;9.194;2023-09-12T15:47:00;30.80;93.80
5476;DHT22;2760;50.000;9.194;2023-09-12T15:49:28;30.80;94.60
5476;DHT22;2760;50.000;9.194;2023-09-12T15:51:55;31.00;95.20
5476;DHT22;2760;50.000;9.194;2023-09-12T15:54:22;30.90;96.00
5476;DHT22;2760;50.000;9.194;2023-09-12T15:56:51;30.90;96.40
5476;DHT22;2760;50.000;9.194;2023-09-12T15:59:18;30.70;95.30
5476;DHT22;2760;50.000;9.194;2023-09-12T16:01:45;30.80;95.20
5476;DHT22;2760;50.000;9.194;2023-09-12T16:04:13;31.00;95.20
5476;DHT22;2760;50.000;9.194;2023-09-12T16:06:40;30.90;95.10
5476;DHT22;2760;50.000;9.194;2023-09-12T16:09:07;30.80;95.60